TAF and METAR

Decoding for American and Canadian METARs and TAFs is not fully implemented.

Could not understand the following METAR

CYRB 232300Z 29007KT 6SM BR BKN003 OVC007 01/M00 A2971 RMK ST5ST3 SLP069

TAF for Resolute Bay Airport

TAF AMD CYRB 232306Z 2323/2418 25010KT P6SM OVC008 TEMPO 2323/2406 2SM -RASN BR OVC004 BECMG 2404/2406 31010KT FM240600 31010KT P6SM OVC010 TEMPO 2406/2418 5SM -RASN OVC008 RMK NXT FCST BY 240000Z
Report created 24. jun 01:06

between 24. jun 01:00 - 24. jun 20:00

wind 10 knots from WSW (250°)